createdAt,value
2016-12-04T00:00:02.395Z,71.52
2016-12-04T00:01:12.416Z,71.61
2016-12-04T00:02:22.444Z,71.42
2016-12-04T00:03:32.140Z,71.61
2016-12-04T00:04:42.471Z,71.52
2016-12-04T00:05:52.507Z,71.42
2016-12-04T00:07:02.825Z,71.42
2016-12-04T00:08:12.851Z,71.14
2016-12-04T00:09:23.207Z,71.61
2016-12-04T00:10:33.224Z,71.61
2016-12-04T00:11:43.235Z,71.23
2016-12-04T00:12:52.932Z,71.61
2016-12-04T00:14:03.264Z,71.14
2016-12-04T00:15:12.976Z,71.52
2016-12-04T00:16:23.307Z,71.14
2016-12-04T00:17:33.678Z,71.14
2016-12-04T00:18:44.041Z,71.42
2016-12-04T00:19:54.373Z,71.14
2016-12-04T00:21:04.713Z,71.23
2016-12-04T00:22:15.042Z,71.14
2016-12-04T00:23:25.052Z,70.95
2016-12-04T00:24:35.079Z,70.86
2016-12-04T00:25:45.405Z,70.76
2016-12-04T00:26:55.407Z,70.86
2016-12-04T00:28:05.450Z,71.23
2016-12-04T00:29:15.463Z,71.04
2016-12-04T00:30:25.506Z,71.14
2016-12-04T00:31:35.205Z,71.14
2016-12-04T00:32:45.201Z,71.23
2016-12-04T00:33:55.541Z,71.14
2016-12-04T00:35:05.558Z,71.23
2016-12-04T00:36:15.579Z,71.33
2016-12-04T00:37:25.915Z,71.04
2016-12-04T00:38:36.265Z,71.14
2016-12-04T00:39:46.282Z,71.14
2016-12-04T00:40:56.283Z,70.95
2016-12-04T00:42:06.642Z,71.14
2016-12-04T00:43:16.980Z,71.14
2016-12-04T00:44:26.987Z,71.14
2016-12-04T00:45:37.030Z,71.14
2016-12-04T00:46:47.351Z,71.14
2016-12-04T00:47:57.359Z,71.04
2016-12-04T00:49:07.371Z,71.04
2016-12-04T00:50:17.377Z,70.95
2016-12-04T00:51:27.379Z,71.04
2016-12-04T00:52:37.395Z,71.14
2016-12-04T00:53:47.718Z,71.01
2016-12-04T00:54:58.056Z,70.92
2016-12-04T00:56:08.361Z,71.01
2016-12-04T00:57:18.685Z,71.2
2016-12-04T00:58:29.025Z,71.3
2016-12-04T00:59:39.046Z,70.92
2016-12-04T01:00:48.452Z,70.82
2016-12-04T01:01:58.780Z,70.82
2016-12-04T01:03:09.103Z,71.01
2016-12-04T01:04:19.419Z,71.2
2016-12-04T01:05:29.471Z,70.82
2016-12-04T01:06:39.791Z,71.11
2016-12-04T01:07:49.803Z,70.73
2016-12-04T01:09:00.120Z,71.11
2016-12-04T01:10:10.457Z,71.11
2016-12-04T01:11:20.153Z,71.2
2016-12-04T01:12:30.474Z,70.82
2016-12-04T01:13:40.831Z,70.92
2016-12-04T01:14:50.527Z,71.01
2016-12-04T01:15:59.965Z,70.92
2016-12-04T01:17:09.989Z,71.3
2016-12-04T01:18:19.694Z,71.2
2016-12-04T01:19:29.696Z,71.3
2016-12-04T01:20:40.002Z,71.11
2016-12-04T01:21:50.009Z,71.2
2016-12-04T01:23:00.321Z,71.11
2016-12-04T01:24:10.026Z,70.82
2016-12-04T01:25:20.034Z,71.3
2016-12-04T01:26:30.044Z,70.92
2016-12-04T01:27:40.057Z,70.92
2016-12-04T01:28:49.759Z,71.39
2016-12-04T01:30:00.080Z,71.39
2016-12-04T01:31:10.397Z,71.2
2016-12-04T01:32:20.405Z,71.01
2016-12-04T01:33:30.411Z,71.01
2016-12-04T01:34:40.100Z,71.2
2016-12-04T01:35:50.424Z,71.2
2016-12-04T01:37:00.120Z,71.01
2016-12-04T01:38:10.466Z,71.11
2016-12-04T01:39:20.803Z,71.11
2016-12-04T01:40:31.122Z,71.2
2016-12-04T01:41:41.444Z,71.2
2016-12-04T01:42:51.761Z,71.2
2016-12-04T01:44:01.766Z,71.01
2016-12-04T01:45:11.815Z,70.92
2016-12-04T01:46:22.128Z,71.3
2016-12-04T01:47:32.140Z,71.01
2016-12-04T01:48:42.459Z,71.2
2016-12-04T01:49:52.459Z,71.11
2016-12-04T01:51:02.777Z,71.39
2016-12-04T01:52:13.131Z,71.01
2016-12-04T01:53:23.730Z,71.58
2016-12-04T01:54:33.752Z,71.39
2016-12-04T01:55:43.771Z,71.2
2016-12-04T01:56:53.786Z,71.2
2016-12-04T01:58:04.126Z,71.2
2016-12-04T01:59:14.463Z,71.3
2016-12-04T02:00:24.791Z,70.92
2016-12-04T02:01:35.121Z,71.3
2016-12-04T02:02:45.444Z,71.3
2016-12-04T02:03:55.753Z,71.39
2016-12-04T02:05:05.781Z,71.11
2016-12-04T02:06:15.819Z,71.2
2016-12-04T02:07:25.516Z,71.11
2016-12-04T02:08:35.850Z,70.82
2016-12-04T02:09:46.165Z,70.82
2016-12-04T02:10:56.172Z,70.82
2016-12-04T02:12:06.492Z,70.82
2016-12-04T02:13:16.229Z,70.73
2016-12-04T02:14:26.247Z,71.2
2016-12-04T02:15:36.287Z,71.11
2016-12-04T02:16:46.594Z,71.2
2016-12-04T02:17:56.602Z,71.01
2016-12-04T02:19:06.923Z,71.2
2016-12-04T02:20:17.235Z,71.11
2016-12-04T02:21:27.232Z,70.92
2016-12-04T02:22:37.568Z,71.11
2016-12-04T02:23:47.590Z,71.3
2016-12-04T02:24:57.941Z,71.11
2016-12-04T02:26:07.976Z,71.11
2016-12-04T02:27:18.320Z,70.82
2016-12-04T02:28:28.023Z,70.92
2016-12-04T02:29:37.729Z,71.2
2016-12-04T02:30:47.736Z,71.2
2016-12-04T02:31:57.777Z,71.11
2016-12-04T02:33:07.475Z,71.2
2016-12-04T02:34:17.797Z,71.01
2016-12-04T02:35:28.371Z,71.39
2016-12-04T02:36:38.385Z,71.48
2016-12-04T02:37:48.422Z,71.01
2016-12-04T02:38:58.436Z,71.01
2016-12-04T02:40:08.138Z,71.2
2016-12-04T02:41:18.456Z,70.82
2016-12-04T02:42:28.778Z,70.92
2016-12-04T02:43:39.092Z,71.2
2016-12-04T02:44:49.095Z,71.3
2016-12-04T02:45:59.121Z,71.11
2016-12-04T02:47:09.434Z,71.11
2016-12-04T02:48:19.125Z,70.92
2016-12-04T02:49:29.132Z,70.92
2016-12-04T02:50:39.460Z,70.92
2016-12-04T02:51:49.834Z,70.92
2016-12-04T02:52:59.837Z,70.92
2016-12-04T02:54:10.209Z,71.01
2016-12-04T02:55:20.209Z,70.92
2016-12-04T02:56:30.227Z,71.39
2016-12-04T02:57:39.926Z,71.2
2016-12-04T02:58:49.616Z,71.01
2016-12-04T02:59:59.942Z,71.11
2016-12-04T03:01:10.271Z,71.2
2016-12-04T03:32:38.026Z,70.87
2016-12-04T03:33:48.023Z,71.62
2016-12-04T03:34:58.014Z,72.28
2016-12-04T03:36:08.047Z,73.13
2016-12-04T03:37:18.355Z,73.41
2016-12-04T03:38:28.384Z,73.88
2016-12-04T03:39:38.396Z,74.17
2016-12-04T03:40:48.707Z,74.36
2016-12-04T03:41:58.699Z,74.64
2016-12-04T03:43:08.712Z,74.36
2016-12-04T03:44:18.717Z,74.07
2016-12-04T03:45:28.729Z,74.11
2016-12-04T03:46:39.061Z,73.45
2016-12-04T03:47:49.072Z,73.36
2016-12-04T03:48:59.099Z,73.26
2016-12-04T03:50:09.101Z,73.36
2016-12-04T03:51:19.426Z,72.88
2016-12-04T03:52:29.740Z,72.22
2016-12-04T03:53:40.080Z,72.32
2016-12-04T03:54:50.097Z,71.94
2016-12-04T03:55:59.849Z,72.17
2016-12-04T03:57:09.570Z,72.36
2016-12-04T03:58:19.883Z,72.55
2016-12-04T03:59:30.214Z,71.69
2016-12-04T04:00:39.926Z,71.79
2016-12-04T04:01:49.924Z,72.07
2016-12-04T04:02:59.941Z,71.98
2016-12-04T04:04:09.951Z,71.41
2016-12-04T04:05:20.259Z,71.5
2016-12-04T04:06:30.304Z,71.6
2016-12-04T04:07:40.315Z,71.03
2016-12-04T04:08:50.630Z,71.12
2016-12-04T04:10:00.640Z,71.45
2016-12-04T04:11:10.957Z,71.54
2016-12-04T04:12:20.963Z,71.45
2016-12-04T04:13:31.281Z,71.16
2016-12-04T04:14:41.621Z,71.54
2016-12-04T04:15:51.939Z,70.78
2016-12-04T04:17:02.270Z,71.07
2016-12-04T04:18:12.596Z,71.07
2016-12-04T04:19:22.928Z,71.16
2016-12-04T04:20:32.936Z,71.16
2016-12-04T04:21:43.266Z,71.16
2016-12-04T04:22:53.274Z,71.16
2016-12-04T04:24:03.601Z,70.97
2016-12-04T04:25:13.952Z,70.97
2016-12-04T04:26:23.968Z,71.35
2016-12-04T04:27:33.967Z,71.07
2016-12-04T04:28:44.296Z,70.69
2016-12-04T04:29:54.307Z,71.35
2016-12-04T04:31:04.677Z,70.88
2016-12-04T04:32:15.001Z,71.07
2016-12-04T04:33:25.018Z,71.35
2016-12-04T04:34:35.343Z,71.45
2016-12-04T04:35:45.663Z,71.45
2016-12-04T04:36:55.998Z,70.78
2016-12-04T04:38:06.326Z,71.35
2016-12-04T04:39:16.648Z,71.35
2016-12-04T04:40:26.658Z,71.35
2016-12-04T04:41:36.686Z,71.35
2016-12-04T04:42:46.694Z,70.97
2016-12-04T04:43:57.023Z,70.78
2016-12-04T04:45:07.352Z,70.78
2016-12-04T04:46:17.664Z,70.59
2016-12-04T04:47:27.987Z,70.59
2016-12-04T04:48:37.993Z,70.97
2016-12-04T04:49:48.300Z,70.59
2016-12-04T04:50:58.311Z,70.69
2016-12-04T04:52:08.632Z,70.69
2016-12-04T04:53:18.945Z,70.69
2016-12-04T04:54:28.637Z,70.5
2016-12-04T04:55:38.963Z,70.4
2016-12-04T04:56:48.689Z,70.59
2016-12-04T04:57:58.706Z,70.4
2016-12-04T04:59:08.713Z,70.59
2016-12-04T05:00:18.423Z,70.59
2016-12-04T05:01:28.440Z,70.59
2016-12-04T05:02:38.762Z,70.5
2016-12-04T05:03:48.470Z,70.5
2016-12-04T05:04:58.795Z,70.69
2016-12-04T05:06:08.833Z,70.4
2016-12-04T05:07:18.850Z,70.31
2016-12-04T05:08:29.203Z,70.78
2016-12-04T05:09:38.908Z,70.78
2016-12-04T05:10:48.629Z,70.78
2016-12-04T05:11:58.663Z,70.59
2016-12-04T05:13:08.692Z,70.59
2016-12-04T05:14:18.400Z,70.78
2016-12-04T05:15:28.712Z,70.78
2016-12-04T05:16:38.723Z,70.59
2016-12-04T05:17:49.041Z,70.88
2016-12-04T05:18:59.052Z,70.69
2016-12-04T05:20:09.304Z,70.59
2016-12-04T05:21:19.318Z,70.59
2016-12-04T05:22:29.345Z,70.59
2016-12-04T05:23:39.684Z,70.59
2016-12-04T05:24:49.687Z,70.59
2016-12-04T05:26:00.012Z,70.5
2016-12-04T05:27:10.351Z,70.69
2016-12-04T05:28:20.367Z,70.4
2016-12-04T05:29:30.387Z,70.21
2016-12-04T05:30:40.715Z,70.31
2016-12-04T05:31:50.716Z,70.31
2016-12-04T05:33:00.734Z,70.69
2016-12-04T05:34:10.744Z,70.21
2016-12-04T05:35:20.437Z,70.59
2016-12-04T05:36:29.818Z,70.21
2016-12-04T05:37:40.130Z,70.4
2016-12-04T05:38:49.830Z,70.4
2016-12-04T05:39:59.828Z,70.69
2016-12-04T05:41:09.839Z,70.56
2016-12-04T05:42:19.855Z,70.28
2016-12-04T05:43:30.179Z,70.37
2016-12-04T05:44:40.495Z,70.18
2016-12-04T05:45:50.845Z,70.31
2016-12-04T05:47:01.182Z,70.37
2016-12-04T05:48:11.501Z,70.37
2016-12-04T05:49:21.515Z,70.59
2016-12-04T05:50:31.834Z,70.5
2016-12-04T05:51:41.846Z,70.4
2016-12-04T05:52:51.846Z,70.4
2016-12-04T05:54:02.164Z,70.4
2016-12-04T05:55:12.489Z,70.78
2016-12-04T05:56:22.811Z,70.69
2016-12-04T05:57:32.822Z,70.5
2016-12-04T05:58:42.820Z,70.69
2016-12-04T05:59:52.821Z,70.4
2016-12-04T06:01:02.838Z,70.4
2016-12-04T06:02:13.145Z,70.21
2016-12-04T06:03:23.466Z,70.4
2016-12-04T06:04:33.158Z,70.31
2016-12-04T06:05:43.177Z,70.59
2016-12-04T06:06:53.487Z,70.31
2016-12-04T06:08:03.499Z,70.59
2016-12-04T06:09:13.856Z,70.69
2016-12-04T06:10:24.173Z,70.69
2016-12-04T06:11:34.477Z,70.69
2016-12-04T06:12:44.484Z,70.59
2016-12-04T06:13:54.486Z,70.5
2016-12-04T06:15:04.517Z,70.4
2016-12-04T06:16:14.839Z,70.78
2016-12-04T06:17:24.847Z,70.69
2016-12-04T06:18:35.174Z,70.4
2016-12-04T06:19:45.195Z,70.78
2016-12-04T06:20:55.252Z,70.88
2016-12-04T06:22:05.583Z,70.78
2016-12-04T06:23:15.590Z,70.88
2016-12-04T06:24:25.591Z,70.69
2016-12-04T06:25:35.298Z,70.69
2016-12-04T06:26:45.308Z,70.4
2016-12-04T06:27:55.694Z,70.59
2016-12-04T06:29:06.019Z,70.59
2016-12-04T06:30:16.346Z,70.69
2016-12-04T06:31:26.351Z,70.69
2016-12-04T06:32:36.669Z,70.4
2016-12-04T06:33:47.010Z,70.78
2016-12-04T06:34:57.323Z,70.59
2016-12-04T06:36:07.331Z,70.4
2016-12-04T06:37:17.661Z,70.59
2016-12-04T06:38:27.993Z,70.5
2016-12-04T06:39:38.006Z,70.59
2016-12-04T06:40:48.017Z,70.59
2016-12-04T06:41:58.028Z,70.69
2016-12-04T06:43:08.349Z,70.59
2016-12-04T06:44:18.361Z,70.5
2016-12-04T06:45:28.370Z,70.59
2016-12-04T06:46:38.110Z,70.59
2016-12-04T06:47:48.122Z,70.4
2016-12-04T06:48:58.444Z,70.5
2016-12-04T06:50:08.451Z,70.59
2016-12-04T06:51:18.768Z,70.69
2016-12-04T06:52:28.493Z,70.69
2016-12-04T06:53:38.496Z,70.69
2016-12-04T06:54:48.869Z,70.69
2016-12-04T06:55:59.190Z,70.69
2016-12-04T06:57:09.201Z,70.31
2016-12-04T06:58:19.199Z,70.16
2016-12-04T06:59:29.520Z,70.25
2016-12-04T07:00:39.840Z,70.16
2016-12-04T07:01:50.200Z,70.35
2016-12-04T07:03:00.215Z,70.44
2016-12-04T07:04:10.542Z,70.25
2016-12-04T07:05:20.552Z,70.44
2016-12-04T07:06:30.570Z,70.73
2016-12-04T07:07:40.897Z,70.63
2016-12-04T07:08:51.217Z,70.35
2016-12-04T07:10:01.557Z,70.25
2016-12-04T07:11:11.581Z,70.82
2016-12-04T07:12:21.907Z,70.92
2016-12-04T07:13:31.921Z,70.82
2016-12-04T07:14:41.937Z,70.92
2016-12-04T07:15:51.330Z,70.82
2016-12-04T07:17:01.327Z,70.92
2016-12-04T07:18:11.342Z,70.92
2016-12-04T07:19:21.068Z,70.82
2016-12-04T07:20:31.079Z,70.63
2016-12-04T07:21:40.471Z,70.44
2016-12-04T07:22:50.483Z,70.44
2016-12-04T07:24:00.830Z,70.63
2016-12-04T07:25:11.166Z,70.73
2016-12-04T07:26:21.486Z,70.63
2016-12-04T07:27:31.814Z,70.73
2016-12-04T07:28:42.140Z,70.73
2016-12-04T07:29:52.182Z,70.63
2016-12-04T07:31:02.205Z,70.73
2016-12-04T07:32:12.220Z,70.73
2016-12-04T07:33:22.558Z,70.54
2016-12-04T07:34:32.260Z,70.54
2016-12-04T07:35:42.595Z,70.57
2016-12-04T07:36:52.605Z,70.76
2016-12-04T07:38:02.314Z,70.57
2016-12-04T07:39:12.310Z,70.48
2016-12-04T07:40:22.622Z,70.67
2016-12-04T07:41:32.628Z,70.48
2016-12-04T07:42:42.631Z,70.39
2016-12-04T07:43:52.648Z,70.67
2016-12-04T07:45:02.663Z,70.86
2016-12-04T07:46:12.985Z,70.67
2016-12-04T07:47:23.006Z,70.86
2016-12-04T07:48:33.318Z,70.86
2016-12-04T07:49:43.335Z,70.86
2016-12-04T07:50:53.341Z,70.86
2016-12-04T07:52:03.353Z,70.48
2016-12-04T07:53:13.384Z,70.67
2016-12-04T07:54:23.715Z,70.76
2016-12-04T07:55:33.725Z,70.57
2016-12-04T07:56:44.050Z,70.67
2016-12-04T07:57:54.381Z,70.67
2016-12-04T07:59:04.713Z,70.67
2016-12-04T08:00:14.729Z,70.67
2016-12-04T08:01:25.086Z,70.57
2016-12-04T08:02:35.093Z,70.76
2016-12-04T08:03:45.108Z,70.76
2016-12-04T08:04:55.434Z,70.57
2016-12-04T08:06:05.764Z,70.76
2016-12-04T08:07:16.337Z,70.48
2016-12-04T08:08:26.356Z,70.57
2016-12-04T08:09:36.058Z,70.57
2016-12-04T08:10:46.386Z,70.39
2016-12-04T08:11:56.399Z,70.48
2016-12-04T08:13:06.735Z,70.67
2016-12-04T08:14:17.061Z,70.86
2016-12-04T08:15:27.387Z,70.67
2016-12-04T08:16:37.713Z,70.86
2016-12-04T08:17:47.731Z,70.67
2016-12-04T08:18:57.759Z,70.86
2016-12-04T08:20:07.774Z,70.95
2016-12-04T08:21:17.786Z,70.67
2016-12-04T08:22:28.104Z,70.95
2016-12-04T08:23:38.429Z,70.76
2016-12-04T08:24:48.738Z,70.39
2016-12-04T08:25:59.059Z,70.48
2016-12-04T08:27:09.405Z,70.57
2016-12-04T08:28:19.753Z,70.48
2016-12-04T08:29:29.468Z,70.76
2016-12-04T08:30:39.787Z,70.86
2016-12-04T08:31:50.117Z,70.48
2016-12-04T08:33:00.462Z,70.86
2016-12-04T08:34:10.822Z,70.51
2016-12-04T08:35:20.832Z,70.79
2016-12-04T08:36:30.869Z,70.79
2016-12-04T08:37:40.891Z,70.42
2016-12-04T08:38:51.232Z,70.32
2016-12-04T08:40:01.260Z,70.32
2016-12-04T08:41:11.267Z,70.32
2016-12-04T08:42:21.615Z,69.66
2016-12-04T08:43:31.951Z,69.76
2016-12-04T08:44:42.275Z,69.95
2016-12-04T08:45:52.284Z,69.98
2016-12-04T08:47:02.332Z,69.79
2016-12-04T08:48:12.653Z,69.51
2016-12-04T08:49:22.354Z,69.7
2016-12-04T08:50:32.071Z,69.98
2016-12-04T08:51:42.071Z,69.98
2016-12-04T08:52:51.804Z,69.89
2016-12-04T08:54:01.197Z,69.51
2016-12-04T08:55:10.899Z,69.98
2016-12-04T08:56:21.245Z,69.51
2016-12-04T08:57:31.252Z,68.98
2016-12-04T08:58:41.584Z,69.26
2016-12-04T08:59:51.898Z,69.26
2016-12-04T09:01:01.587Z,68.88
2016-12-04T09:02:11.906Z,69.07
2016-12-04T09:03:22.223Z,69.26
2016-12-04T09:04:32.571Z,69.1
2016-12-04T09:05:42.890Z,69.1
2016-12-04T09:06:53.213Z,69.29
2016-12-04T09:08:03.522Z,69.38
2016-12-04T09:09:13.524Z,69.48
2016-12-04T09:10:23.536Z,69.29
2016-12-04T09:11:33.551Z,69.01
2016-12-04T09:12:43.565Z,69.38
2016-12-04T09:13:53.580Z,69.57
2016-12-04T09:15:03.613Z,70.05
2016-12-04T09:16:13.942Z,69.77
2016-12-04T09:17:23.959Z,69.67
2016-12-04T09:18:34.273Z,69.86
2016-12-04T09:19:44.283Z,69.96
2016-12-04T09:20:54.609Z,70.62
2016-12-04T09:22:04.942Z,70.53
2016-12-04T09:23:14.639Z,70.34
2016-12-04T09:24:24.661Z,70.24
2016-12-04T09:25:34.992Z,70.34
2016-12-04T09:26:45.023Z,70.53
2016-12-04T09:27:55.356Z,70.43
2016-12-04T09:29:05.682Z,70.43
2016-12-04T09:30:16.013Z,70.72
2016-12-04T09:31:26.030Z,70.24
2016-12-04T09:32:36.067Z,70.34
2016-12-04T09:33:46.459Z,70.34
2016-12-04T09:34:55.841Z,70.43
2016-12-04T09:36:05.541Z,70.62
2016-12-04T09:37:15.264Z,70.34
2016-12-04T09:38:25.611Z,70.24
2016-12-04T09:39:35.635Z,70.34
2016-12-04T09:40:45.049Z,70.24
2016-12-04T09:41:55.373Z,70.37
2016-12-04T09:43:05.400Z,70.37
2016-12-04T09:44:15.405Z,70.56
2016-12-04T09:45:25.470Z,70.56
2016-12-04T09:46:35.834Z,70.37
2016-12-04T09:47:45.857Z,70.37
2016-12-04T09:48:56.190Z,70.56
2016-12-04T09:50:06.204Z,69.71
2016-12-04T09:51:15.909Z,69.9
2016-12-04T09:52:26.244Z,70.09
2016-12-04T09:53:36.573Z,70.09
2016-12-04T09:54:46.582Z,69.8
2016-12-04T09:55:56.615Z,69.9
2016-12-04T09:57:06.345Z,69.8
2016-12-04T09:58:16.365Z,69.99
2016-12-04T09:59:26.377Z,70.56
2016-12-04T10:00:36.733Z,70.37
2016-12-04T10:01:46.436Z,70.28
2016-12-04T10:02:56.759Z,70.65
2016-12-04T10:04:06.251Z,70.28
2016-12-04T10:05:15.974Z,70.47
2016-12-04T10:06:25.679Z,70.47
2016-12-04T10:07:36.004Z,70.37
2016-12-04T10:08:46.112Z,70.59
2016-12-04T10:09:56.587Z,70.37
2016-12-04T10:11:06.918Z,70.37
2016-12-04T10:12:17.047Z,70.59
2016-12-04T10:13:27.375Z,70.59
2016-12-04T10:14:37.402Z,70.21
2016-12-04T10:15:47.756Z,70.12
2016-12-04T10:16:57.773Z,69.84
2016-12-04T10:18:08.096Z,69.65
2016-12-04T10:19:18.441Z,69.84
2016-12-04T10:20:28.475Z,69.74
2016-12-04T10:21:38.798Z,69.93
2016-12-04T10:22:48.818Z,70.59
2016-12-04T10:23:58.849Z,70.4
2016-12-04T10:25:09.166Z,70.31
2016-12-04T10:26:19.196Z,70.4
2016-12-04T10:27:29.528Z,70.59
2016-12-04T10:28:39.544Z,70.69
2016-12-04T10:29:49.551Z,70.59
2016-12-04T10:30:59.569Z,70.4
2016-12-04T10:32:09.901Z,70.31
2016-12-04T10:33:19.296Z,70.59
2016-12-04T10:34:28.996Z,70.5
2016-12-04T10:35:39.002Z,70.31
2016-12-04T10:36:49.018Z,70.5
2016-12-04T10:37:59.038Z,70.69
2016-12-04T10:39:08.727Z,70.78
2016-12-04T10:40:19.067Z,70.98
2016-12-04T10:41:29.405Z,70.78
2016-12-04T10:42:39.743Z,70.4
2016-12-04T10:43:49.748Z,71.07
2016-12-04T10:45:00.079Z,71.17
2016-12-04T10:46:10.400Z,70.59
2016-12-04T10:47:20.737Z,70.98
2016-12-04T10:48:30.759Z,70.59
2016-12-04T10:49:40.777Z,71.07
2016-12-04T10:50:51.110Z,71.11
2016-12-04T10:52:01.158Z,70.63
2016-12-04T10:53:10.873Z,70.73
2016-12-04T10:54:20.909Z,70.44
2016-12-04T10:55:31.240Z,70.25
2016-12-04T10:56:41.561Z,70.73
2016-12-04T10:57:51.575Z,70.25
2016-12-04T10:59:01.280Z,70.25
2016-12-04T11:00:11.598Z,70.35
2016-12-04T11:01:21.918Z,70.44
2016-12-04T11:02:31.934Z,70.63
2016-12-04T11:03:42.256Z,70.54
2016-12-04T11:04:52.269Z,70.92
2016-12-04T11:06:02.604Z,70.82
2016-12-04T11:07:12.626Z,70.82
2016-12-04T11:08:22.952Z,70.92
2016-12-04T11:09:32.996Z,70.73
2016-12-04T11:10:43.019Z,70.82
2016-12-04T11:11:53.360Z,70.92
2016-12-04T11:18:41.432Z,71.64
2016-12-04T11:19:51.808Z,71.64
2016-12-04T11:21:02.140Z,71.45
2016-12-04T11:22:12.458Z,71.36
2016-12-04T11:23:22.483Z,71.83
2016-12-04T11:24:32.825Z,71.64
2016-12-04T11:25:43.152Z,71.45
2016-12-04T11:26:53.499Z,71.64
2016-12-04T11:28:03.515Z,71.92
2016-12-04T11:29:13.848Z,71.64
2016-12-04T11:30:24.174Z,71.73
2016-12-04T11:31:34.185Z,71.73
2016-12-04T11:32:44.223Z,72.11
2016-12-04T11:33:53.947Z,71.45
2016-12-04T11:35:03.981Z,71.64
2016-12-04T11:36:14.319Z,71.83
2016-12-04T11:37:24.660Z,71.45
2016-12-04T11:38:33.759Z,71.73
2016-12-04T11:39:43.787Z,71.45
2016-12-04T11:40:53.514Z,71.3
2016-12-04T11:42:03.868Z,71.01
2016-12-04T11:43:14.197Z,71.2
2016-12-04T11:44:24.549Z,70.92
2016-12-04T11:45:34.880Z,71.39
2016-12-04T11:46:44.898Z,71.01
2016-12-04T11:47:55.225Z,70.82
2016-12-04T11:49:05.553Z,70.54
2016-12-04T11:50:15.573Z,71.2
2016-12-04T11:51:25.291Z,70.63
2016-12-04T11:52:35.638Z,71.01
2016-12-04T11:53:45.977Z,71.01
2016-12-04T11:54:56.305Z,70.44
2016-12-04T11:56:05.702Z,70.44
2016-12-04T11:57:15.718Z,70.19
2016-12-04T11:58:25.719Z,70.67
2016-12-04T11:59:36.057Z,70.67
2016-12-04T12:00:46.095Z,70.95
2016-12-04T12:01:56.424Z,70.86
2016-12-04T12:03:06.779Z,70.86
2016-12-04T12:04:17.109Z,70.95
2016-12-04T12:05:27.155Z,70.57
2016-12-04T12:06:37.480Z,70.95
2016-12-04T12:07:47.509Z,70.67
2016-12-04T12:08:57.856Z,70.76
2016-12-04T12:10:08.185Z,70.57
2016-12-04T12:11:17.898Z,70.95
2016-12-04T12:12:28.249Z,70.95
2016-12-04T12:13:38.276Z,70.76
2016-12-04T12:14:48.606Z,70.86
2016-12-04T12:15:58.990Z,71.04
2016-12-04T12:17:09.334Z,71.04
2016-12-04T12:18:19.680Z,70.67
2016-12-04T12:19:29.699Z,70.48
2016-12-04T12:20:39.743Z,71.14
2016-12-04T12:21:49.763Z,71.71
2016-12-04T12:22:59.471Z,71.62
2016-12-04T12:24:09.827Z,71.43
2016-12-04T12:25:20.144Z,71.52
2016-12-04T12:26:30.168Z,71.52
2016-12-04T12:27:40.499Z,71.23
2016-12-04T12:28:50.853Z,71.58
2016-12-04T12:30:00.895Z,71.96
2016-12-04T12:31:11.237Z,71.71
2016-12-04T12:32:20.954Z,71.43
2016-12-04T12:33:31.290Z,71.96
2016-12-04T12:34:41.305Z,72.06
2016-12-04T12:35:51.653Z,71.67
2016-12-04T12:37:01.996Z,72.15
2016-12-04T12:38:12.044Z,72.06
2016-12-04T12:39:22.058Z,71.96
2016-12-04T12:40:32.085Z,72.15
2016-12-04T12:41:42.417Z,72.34
2016-12-04T12:42:52.453Z,72.06
2016-12-04T12:44:02.466Z,72.44
2016-12-04T12:45:12.804Z,72.25
2016-12-04T12:46:23.146Z,72.15
2016-12-04T12:47:33.179Z,72.15
2016-12-04T12:48:43.503Z,72.81
2016-12-04T12:49:53.208Z,72.72
2016-12-04T12:51:03.210Z,72.4
2016-12-04T12:52:13.232Z,72.3
2016-12-04T12:53:23.257Z,72.21
2016-12-04T12:54:33.571Z,72.4
2016-12-04T12:55:43.618Z,73.07
2016-12-04T12:56:53.615Z,72.4
2016-12-04T12:58:03.659Z,72.59
2016-12-04T12:59:13.989Z,72.59
2016-12-04T13:00:23.682Z,72.88
2016-12-04T13:01:33.701Z,73.07
2016-12-04T13:02:44.027Z,72.68
2016-12-04T13:03:53.784Z,72.78
2016-12-04T13:05:03.819Z,72.88
2016-12-04T13:06:14.170Z,72.88
2016-12-04T13:07:23.867Z,72.78
2016-12-04T13:08:34.438Z,72.64
2016-12-04T13:09:44.157Z,72.68
2016-12-04T13:10:54.497Z,72.64
2016-12-04T13:12:04.523Z,72.93
2016-12-04T13:13:14.855Z,72.93
2016-12-04T13:14:24.872Z,72.84
2016-12-04T13:15:34.889Z,72.74
2016-12-04T13:16:44.898Z,72.74
2016-12-04T13:17:55.237Z,72.64
2016-12-04T13:19:05.595Z,72.64
2016-12-04T13:20:15.609Z,72.74
2016-12-04T13:21:25.948Z,72.64
2016-12-04T13:22:35.649Z,72.64
2016-12-04T13:23:45.978Z,72.64
2016-12-04T13:24:55.698Z,72.55
2016-12-04T13:26:06.020Z,72.55
2016-12-04T13:27:16.343Z,72.93
2016-12-04T13:28:26.386Z,72.74
2016-12-04T13:29:36.747Z,72.84
2016-12-04T13:30:46.775Z,72.93
2016-12-04T13:31:57.130Z,73.03
2016-12-04T13:33:07.472Z,73.03
2016-12-04T13:34:17.805Z,72.84
2016-12-04T13:35:27.834Z,73.03
2016-12-04T13:36:38.166Z,72.93
2016-12-04T13:37:48.492Z,72.93
2016-12-04T13:38:58.830Z,72.84
2016-12-04T13:40:09.168Z,72.89
2016-12-04T13:41:19.201Z,72.93
2016-12-04T13:42:29.535Z,72.61
2016-12-04T13:43:39.880Z,72.8
2016-12-04T13:44:50.209Z,72.61
2016-12-04T13:45:59.658Z,72.71
2016-12-04T13:47:09.691Z,72.89
2016-12-04T13:48:19.717Z,72.99
2016-12-04T13:49:29.714Z,72.99
2016-12-04T13:50:40.050Z,72.99
2016-12-04T13:51:50.378Z,72.89
2016-12-04T13:53:00.075Z,72.99
2016-12-04T13:54:10.075Z,72.99
2016-12-04T13:55:20.416Z,72.61
2016-12-04T13:56:30.420Z,72.8
2016-12-04T13:57:40.150Z,72.8
2016-12-04T13:58:50.503Z,72.61
2016-12-04T14:00:00.818Z,72.89
2016-12-04T14:01:10.534Z,73.08
2016-12-04T14:02:20.255Z,72.89
2016-12-04T14:03:30.291Z,72.8
2016-12-04T14:04:40.052Z,72.8
2016-12-04T14:05:49.759Z,72.99
2016-12-04T14:06:59.791Z,72.61
2016-12-04T14:08:10.134Z,72.8
2016-12-04T14:09:20.465Z,72.8
2016-12-04T14:10:30.805Z,72.71
2016-12-04T14:11:41.135Z,72.71
2016-12-04T14:12:51.140Z,72.33
2016-12-04T14:14:00.857Z,72.33
2016-12-04T14:15:11.247Z,72.52
2016-12-04T14:16:21.250Z,72.42
2016-12-04T14:17:31.275Z,72.71
2016-12-04T14:18:41.283Z,72.89
2016-12-04T14:19:51.609Z,72.61
2016-12-04T14:21:01.631Z,72.61
2016-12-04T14:22:11.662Z,72.8
2016-12-04T14:23:21.696Z,73.08
2016-12-04T14:24:32.032Z,72.99
2016-12-04T14:25:42.355Z,72.61
2016-12-04T14:26:52.690Z,72.89
2016-12-04T14:28:02.388Z,72.8
2016-12-04T14:29:12.424Z,72.61
2016-12-04T14:30:22.762Z,72.57
2016-12-04T14:31:33.092Z,72.57
2016-12-04T14:32:43.026Z,72.52
2016-12-04T14:33:53.361Z,72.48
2016-12-04T14:35:03.384Z,72.77
2016-12-04T14:36:13.756Z,72.67
2016-12-04T14:37:23.462Z,72.67
2016-12-04T14:38:33.479Z,73.33
2016-12-04T14:39:43.800Z,73.24
2016-12-04T14:40:54.122Z,72.86
2016-12-04T14:42:03.834Z,73.05
2016-12-04T14:43:13.240Z,73.14
2016-12-04T14:44:22.652Z,73.24
2016-12-04T14:45:32.664Z,73.05
2016-12-04T14:46:42.372Z,73.33
2016-12-04T14:47:52.094Z,73.24
2016-12-04T14:49:02.130Z,72.77
2016-12-04T14:50:12.153Z,73.33
2016-12-04T14:51:22.198Z,73.24
2016-12-04T14:52:32.216Z,73.05
2016-12-04T14:53:42.549Z,73.33
2016-12-04T14:54:52.815Z,73.05
2016-12-04T14:56:03.153Z,72.67
2016-12-04T14:57:13.170Z,72.48
2016-12-04T14:58:23.505Z,72.57
2016-12-04T14:59:33.512Z,72.77
2016-12-04T15:00:43.829Z,72.67
2016-12-04T15:01:53.843Z,72.67
2016-12-04T15:03:04.170Z,72.67
2016-12-04T15:04:14.185Z,72.53
2016-12-04T15:05:24.191Z,72.67
2016-12-04T15:06:34.206Z,72.77
2016-12-04T15:07:44.245Z,72.63
2016-12-04T15:08:54.252Z,72.73
2016-12-04T15:10:04.277Z,72.82
2016-12-04T15:11:14.640Z,72.73
2016-12-04T15:12:24.666Z,72.53
2016-12-04T15:13:35.053Z,72.63
2016-12-04T15:14:45.384Z,72.73
2016-12-04T15:15:55.708Z,72.73
2016-12-04T15:17:06.044Z,72.73
2016-12-04T15:18:16.064Z,72.82
2016-12-04T15:19:26.397Z,72.63
2016-12-04T15:20:36.731Z,72.44
2016-12-04T15:21:47.060Z,72.82
2016-12-04T15:22:57.111Z,73.01
2016-12-04T15:24:07.421Z,72.92
2016-12-04T15:25:17.467Z,72.53
2016-12-04T15:26:27.798Z,71.97
2016-12-04T15:27:37.816Z,72.34
2016-12-04T15:28:48.182Z,72.34
2016-12-04T15:29:57.893Z,72.25
2016-12-04T15:31:08.209Z,72.25
2016-12-04T15:32:18.237Z,72.34
2016-12-04T15:33:28.601Z,72.63
2016-12-04T15:34:38.940Z,72.63
2016-12-04T15:35:49.274Z,72.53
2016-12-04T15:36:59.294Z,72.53
2016-12-04T15:38:09.637Z,72.44
2016-12-04T15:39:19.633Z,72.63
2016-12-04T15:40:29.655Z,72.53
2016-12-04T15:41:39.361Z,72.53